createdAt,value
2018-09-06T00:01:11.626Z,18.80
2018-09-06T00:03:40.122Z,18.70
2018-09-06T00:06:08.576Z,18.70
2018-09-06T00:08:37.060Z,18.60
2018-09-06T00:11:05.459Z,18.60
2018-09-06T00:13:33.846Z,18.70
2018-09-06T00:16:02.246Z,18.70
2018-09-06T00:18:30.631Z,18.80
2018-09-06T00:20:59.062Z,18.70
2018-09-06T00:23:27.448Z,18.60
2018-09-06T00:25:55.925Z,18.70
2018-09-06T00:28:24.384Z,18.60
2018-09-06T00:30:52.761Z,18.40
2018-09-06T00:33:21.116Z,18.20
2018-09-06T00:35:49.508Z,18.30
2018-09-06T00:38:17.909Z,18.30
2018-09-06T00:40:46.343Z,18.20
2018-09-06T00:43:14.744Z,18.20
2018-09-06T00:45:43.192Z,18.10
2018-09-06T00:48:11.661Z,18.10
2018-09-06T00:50:40.772Z,18.10
2018-09-06T00:53:09.344Z,18.00
2018-09-06T00:55:37.783Z,18.10
2018-09-06T00:58:06.638Z,18.10
2018-09-06T01:00:35.045Z,18.10
2018-09-06T01:03:03.475Z,18.10
2018-09-06T01:05:31.890Z,18.10
2018-09-06T01:08:00.503Z,18.20
2018-09-06T01:10:29.069Z,18.10
2018-09-06T01:12:57.487Z,18.20
2018-09-06T01:15:25.912Z,18.30
2018-09-06T01:17:54.321Z,18.20
2018-09-06T01:20:22.771Z,18.20
2018-09-06T01:22:51.205Z,18.30
2018-09-06T01:25:19.609Z,18.50
2018-09-06T01:27:48.070Z,18.50
2018-09-06T01:30:16.540Z,18.40
2018-09-06T01:32:44.998Z,18.40
2018-09-06T01:35:13.458Z,18.50
2018-09-06T01:37:41.838Z,18.50
2018-09-06T01:40:10.363Z,18.60
2018-09-06T01:42:38.749Z,18.50
2018-09-06T01:45:07.128Z,18.50
2018-09-06T01:47:35.525Z,18.60
2018-09-06T01:50:03.986Z,18.60
2018-09-06T01:52:32.435Z,18.40
2018-09-06T01:55:00.800Z,18.50
2018-09-06T01:57:29.261Z,18.60
2018-09-06T01:59:57.648Z,18.60
2018-09-06T02:02:26.634Z,18.60
2018-09-06T02:04:55.231Z,18.60
2018-09-06T02:07:23.876Z,18.60
2018-09-06T02:09:52.310Z,18.70
2018-09-06T02:12:20.847Z,18.70
2018-09-06T02:14:49.247Z,18.70
2018-09-06T02:17:17.701Z,18.70
2018-09-06T02:19:46.203Z,18.70
2018-09-06T02:22:14.663Z,18.80
2018-09-06T02:24:43.243Z,18.70
2018-09-06T02:27:11.645Z,18.80
2018-09-06T02:29:40.094Z,18.70
2018-09-06T02:32:08.610Z,18.60
2018-09-06T02:34:37.159Z,18.70
2018-09-06T02:37:05.742Z,18.60
2018-09-06T02:39:34.374Z,18.70
2018-09-06T02:42:02.850Z,18.60
2018-09-06T02:44:31.272Z,18.50
2018-09-06T02:46:59.771Z,18.60
2018-09-06T02:49:33.590Z,18.50
2018-09-06T02:52:02.041Z,18.50
2018-09-06T02:54:30.404Z,18.50
2018-09-06T02:56:59.463Z,18.50
2018-09-06T02:59:27.885Z,18.40
2018-09-06T03:01:56.305Z,18.40
2018-09-06T03:04:24.815Z,18.50
2018-09-06T03:06:53.277Z,18.50
2018-09-06T03:09:22.596Z,18.60
2018-09-06T03:11:54.850Z,18.60
2018-09-06T03:14:24.919Z,18.70
2018-09-06T03:16:53.408Z,18.70
2018-09-06T03:19:21.830Z,18.70
2018-09-06T03:21:50.314Z,18.70
2018-09-06T03:24:18.973Z,18.70
2018-09-06T03:26:47.430Z,18.60
2018-09-06T03:29:15.816Z,18.60
2018-09-06T03:31:44.197Z,18.50
2018-09-06T03:34:12.641Z,18.60
2018-09-06T03:36:41.057Z,18.60
2018-09-06T03:39:10.111Z,18.60
2018-09-06T03:41:38.747Z,18.60
2018-09-06T03:44:07.233Z,18.60
2018-09-06T03:46:35.757Z,18.60
2018-09-06T03:49:04.177Z,18.70
2018-09-06T03:51:32.593Z,18.60
2018-09-06T03:54:01.049Z,18.40
2018-09-06T03:56:29.448Z,18.50
2018-09-06T03:58:57.836Z,18.50
2018-09-06T04:01:26.278Z,18.50
2018-09-06T04:03:54.745Z,18.50
2018-09-06T04:06:23.174Z,18.40
2018-09-06T04:08:51.661Z,18.40
2018-09-06T04:11:20.057Z,18.40
2018-09-06T04:13:48.547Z,18.40
2018-09-06T04:16:16.996Z,18.40
2018-09-06T04:18:45.387Z,18.40
2018-09-06T04:21:13.812Z,18.30
2018-09-06T04:23:42.278Z,18.40
2018-09-06T04:26:10.635Z,18.40
2018-09-06T04:28:39.131Z,18.40
2018-09-06T04:31:07.623Z,18.40
2018-09-06T04:33:36.041Z,18.40
2018-09-06T04:36:04.487Z,18.40
2018-09-06T04:38:32.940Z,18.30
2018-09-06T04:41:01.339Z,18.30
2018-09-06T04:43:30.053Z,18.40
2018-09-06T04:45:58.441Z,18.30
2018-09-06T04:48:26.854Z,18.30
2018-09-06T04:50:55.237Z,18.40
2018-09-06T04:53:23.631Z,18.40
2018-09-06T04:55:52.013Z,18.50
2018-09-06T04:58:20.517Z,18.50
2018-09-06T05:00:48.923Z,18.50
2018-09-06T05:03:17.309Z,18.30
2018-09-06T05:05:45.732Z,18.10
2018-09-06T05:08:14.759Z,17.90
2018-09-06T05:10:43.395Z,17.80
2018-09-06T05:13:11.844Z,17.60
2018-09-06T05:15:40.328Z,17.50
2018-09-06T05:18:08.785Z,17.40
2018-09-06T05:20:37.320Z,17.30
2018-09-06T05:23:06.030Z,17.30
2018-09-06T05:25:34.592Z,17.30
2018-09-06T05:28:02.947Z,17.30
2018-09-06T05:30:31.475Z,17.20
2018-09-06T05:32:59.910Z,17.20
2018-09-06T05:35:28.310Z,17.30
2018-09-06T05:37:56.822Z,17.40
2018-09-06T05:40:25.247Z,17.40
2018-09-06T05:42:53.653Z,17.50
2018-09-06T05:45:22.129Z,17.50
2018-09-06T05:47:56.019Z,17.60
2018-09-06T05:50:24.396Z,17.60
2018-09-06T05:52:52.827Z,17.60
2018-09-06T05:55:21.508Z,17.60
2018-09-06T05:57:49.888Z,17.60
2018-09-06T06:00:23.862Z,17.60
2018-09-06T06:02:52.995Z,17.60
2018-09-06T06:05:21.429Z,17.60
2018-09-06T06:08:01.333Z,17.60
2018-09-06T06:10:29.741Z,17.70
2018-09-06T06:12:58.172Z,17.90
2018-09-06T06:15:26.681Z,18.00
2018-09-06T06:17:55.145Z,18.10
2018-09-06T06:20:23.664Z,18.10
2018-09-06T06:22:52.145Z,18.00
2018-09-06T06:25:20.735Z,18.00
2018-09-06T06:27:49.115Z,18.10
2018-09-06T06:30:17.512Z,18.10
2018-09-06T06:32:46.298Z,18.00
2018-09-06T06:35:14.905Z,18.00
2018-09-06T06:37:43.364Z,18.00
2018-09-06T06:40:11.775Z,17.90
2018-09-06T06:42:40.229Z,17.90
2018-09-06T06:45:08.773Z,17.90
2018-09-06T06:47:37.161Z,17.90
2018-09-06T06:50:05.618Z,18.00
2018-09-06T06:52:34.073Z,18.10
2018-09-06T06:55:02.483Z,18.10
2018-09-06T06:57:30.888Z,18.20
2018-09-06T06:59:59.402Z,18.30
2018-09-06T07:02:27.803Z,18.40
2018-09-06T07:04:56.649Z,18.50
2018-09-06T07:07:25.095Z,18.70
2018-09-06T07:09:53.573Z,18.90
2018-09-06T07:12:21.986Z,19.00
2018-09-06T07:14:57.204Z,19.20
2018-09-06T07:17:25.570Z,19.30
2018-09-06T07:19:54.028Z,19.50
2018-09-06T07:22:29.023Z,19.60
2018-09-06T07:24:57.412Z,19.70
2018-09-06T07:27:25.949Z,19.80
2018-09-06T07:29:54.395Z,20.00
2018-09-06T07:32:22.825Z,20.10
2018-09-06T07:34:51.299Z,20.10
2018-09-06T07:37:19.699Z,20.20
2018-09-06T07:39:48.150Z,20.40
2018-09-06T07:42:16.540Z,20.60
2018-09-06T07:44:44.973Z,20.70
2018-09-06T07:47:13.371Z,20.70
2018-09-06T07:49:41.726Z,20.70
2018-09-06T07:52:10.186Z,20.90
2018-09-06T07:54:38.530Z,21.00
2018-09-06T07:57:06.938Z,21.30
2018-09-06T07:59:35.329Z,21.30
2018-09-06T08:02:03.786Z,21.40
2018-09-06T08:04:32.199Z,21.60
2018-09-06T08:07:00.554Z,21.80
2018-09-06T08:09:29.025Z,21.90
2018-09-06T08:11:57.497Z,22.00
2018-09-06T08:14:25.858Z,22.00
2018-09-06T08:16:54.259Z,22.00
2018-09-06T08:19:22.611Z,22.10
2018-09-06T08:21:51.028Z,22.30
2018-09-06T08:24:19.609Z,22.50
2018-09-06T08:26:48.033Z,22.80
2018-09-06T08:29:16.368Z,22.90
2018-09-06T08:31:44.775Z,23.10
2018-09-06T08:34:13.153Z,23.10
2018-09-06T08:36:41.593Z,23.30
2018-09-06T08:39:10.768Z,23.70
2018-09-06T08:41:40.022Z,23.90
2018-09-06T08:44:08.471Z,23.90
2018-09-06T08:46:37.399Z,24.10
2018-09-06T08:49:05.870Z,24.20
2018-09-06T08:51:34.260Z,24.20
2018-09-06T08:54:02.935Z,24.50
2018-09-06T08:56:31.368Z,24.80
2018-09-06T08:58:59.753Z,25.00
2018-09-06T09:01:33.645Z,25.20
2018-09-06T09:04:02.094Z,25.30
2018-09-06T09:06:37.698Z,25.30
2018-09-06T09:09:10.832Z,25.60
2018-09-06T09:11:39.664Z,25.40
2018-09-06T09:14:08.115Z,25.50
2018-09-06T09:16:36.881Z,25.60
2018-09-06T09:19:05.801Z,25.80
2018-09-06T09:21:34.458Z,25.60
2018-09-06T09:24:03.616Z,25.60
2018-09-06T09:26:32.048Z,25.30
2018-09-06T09:29:00.467Z,25.40
2018-09-06T09:31:28.901Z,25.70
2018-09-06T09:33:57.346Z,26.10
2018-09-06T09:36:25.787Z,26.50
2018-09-06T09:38:54.216Z,26.60
2018-09-06T09:41:22.674Z,26.80
2018-09-06T09:43:51.086Z,26.80
2018-09-06T09:48:47.143Z,27.20
2018-09-06T09:51:15.537Z,27.30
2018-09-06T09:53:43.903Z,27.10
2018-09-06T09:56:12.278Z,27.20
2018-09-06T09:58:40.720Z,27.10
2018-09-06T10:01:09.139Z,27.40
2018-09-06T10:03:43.000Z,27.40
2018-09-06T10:06:21.593Z,27.60
2018-09-06T10:08:55.983Z,27.60
2018-09-06T10:11:24.785Z,27.60
2018-09-06T10:13:53.189Z,27.60
2018-09-06T10:16:21.538Z,27.70
2018-09-06T10:18:49.918Z,27.60
2018-09-06T10:21:18.419Z,27.50
2018-09-06T10:23:46.774Z,28.00
2018-09-06T10:26:15.163Z,28.60
2018-09-06T10:28:43.556Z,28.60
2018-09-06T10:31:11.948Z,28.60
2018-09-06T10:33:40.351Z,28.60
2018-09-06T10:36:08.724Z,28.40
2018-09-06T10:38:37.155Z,28.10
2018-09-06T10:41:05.861Z,27.80
2018-09-06T10:43:34.219Z,27.80
2018-09-06T10:46:02.684Z,28.00
2018-09-06T10:48:31.081Z,28.00
2018-09-06T10:50:59.467Z,28.20
2018-09-06T10:53:27.924Z,27.90
2018-09-06T10:55:56.383Z,28.10
2018-09-06T10:58:24.888Z,27.80
2018-09-06T11:00:58.560Z,28.20
2018-09-06T11:03:27.024Z,28.30
2018-09-06T11:05:55.444Z,28.10
2018-09-06T11:08:23.906Z,28.00
2018-09-06T11:10:52.419Z,28.50
2018-09-06T11:13:20.850Z,28.40
2018-09-06T11:15:49.195Z,28.60
2018-09-06T11:18:17.682Z,29.00
2018-09-06T11:20:46.113Z,28.90
2018-09-06T11:23:14.492Z,28.10
2018-09-06T11:25:42.857Z,27.80
2018-09-06T11:28:11.344Z,27.50
2018-09-06T11:30:39.737Z,27.30
2018-09-06T11:33:08.129Z,27.00
2018-09-06T11:35:36.532Z,27.20
2018-09-06T11:38:04.998Z,27.50
2018-09-06T11:40:33.576Z,27.70
2018-09-06T11:43:02.121Z,27.90
2018-09-06T11:45:30.514Z,27.80
2018-09-06T11:47:58.972Z,27.90
2018-09-06T11:50:27.469Z,27.40
2018-09-06T11:52:55.982Z,27.90
2018-09-06T11:55:24.413Z,28.50
2018-09-06T11:57:52.828Z,29.20
2018-09-06T12:00:21.527Z,30.00
2018-09-06T12:02:49.888Z,30.30
2018-09-06T12:05:18.349Z,30.10
2018-09-06T12:07:46.751Z,29.60
2018-09-06T12:10:15.179Z,29.70
2018-09-06T12:12:43.582Z,30.00
2018-09-06T12:15:11.976Z,30.50
2018-09-06T12:17:40.363Z,30.60
2018-09-06T12:20:09.618Z,30.90
2018-09-06T12:22:38.275Z,31.30
2018-09-06T12:25:06.896Z,31.50
2018-09-06T12:27:35.399Z,31.30
2018-09-06T12:30:03.873Z,31.50
2018-09-06T12:32:32.337Z,31.40
2018-09-06T12:35:00.717Z,31.10
2018-09-06T12:37:29.255Z,31.40
2018-09-06T12:39:57.626Z,31.20
2018-09-06T12:42:26.036Z,30.60
2018-09-06T12:44:54.626Z,30.20
2018-09-06T12:47:23.120Z,29.90
2018-09-06T12:49:51.543Z,29.80
2018-09-06T12:52:19.922Z,29.90
2018-09-06T12:54:48.330Z,30.10
2018-09-06T12:57:16.691Z,30.50
2018-09-06T12:59:45.090Z,30.50
2018-09-06T13:02:13.609Z,30.50
2018-09-06T13:04:41.992Z,30.80
2018-09-06T13:07:10.370Z,31.20
2018-09-06T13:09:38.834Z,31.60
2018-09-06T13:12:07.281Z,31.90
2018-09-06T13:14:35.787Z,31.60
2018-09-06T13:17:04.156Z,31.40
2018-09-06T13:19:32.651Z,31.40
2018-09-06T13:22:01.059Z,31.00
2018-09-06T13:24:29.773Z,30.90
2018-09-06T13:26:58.193Z,30.90
2018-09-06T13:29:26.615Z,30.90
2018-09-06T13:31:55.144Z,30.90
2018-09-06T13:34:23.518Z,30.70
2018-09-06T13:36:51.906Z,30.90
2018-09-06T13:39:20.379Z,31.10
2018-09-06T13:41:48.803Z,30.90
2018-09-06T13:44:17.151Z,30.70
2018-09-06T13:46:45.533Z,30.40
2018-09-06T13:49:13.921Z,30.20
2018-09-06T13:51:42.359Z,30.30
2018-09-06T13:54:10.755Z,30.60
2018-09-06T13:56:39.435Z,30.80
2018-09-06T13:59:07.993Z,30.90
2018-09-06T14:01:36.595Z,31.00
2018-09-06T14:04:04.991Z,31.20
2018-09-06T14:06:39.869Z,31.00
2018-09-06T14:09:08.384Z,30.80
2018-09-06T14:11:37.169Z,30.30
2018-09-06T14:14:05.677Z,30.50
2018-09-06T14:16:34.208Z,30.30
2018-09-06T14:19:02.690Z,30.50
2018-09-06T14:21:31.120Z,30.30
2018-09-06T14:23:59.568Z,30.30
2018-09-06T14:26:27.992Z,30.40
2018-09-06T14:28:56.505Z,30.50
2018-09-06T14:31:24.987Z,30.30
2018-09-06T14:33:53.435Z,30.20
2018-09-06T14:36:21.885Z,30.40
2018-09-06T14:38:50.272Z,30.30
2018-09-06T14:41:18.691Z,30.60
2018-09-06T14:43:47.054Z,30.30
2018-09-06T14:46:15.670Z,30.20
2018-09-06T14:48:44.110Z,30.40
2018-09-06T14:51:12.491Z,30.50
2018-09-06T14:53:40.927Z,30.00
2018-09-06T14:56:09.479Z,29.60
2018-09-06T14:58:38.171Z,29.40
2018-09-06T15:01:06.696Z,29.50
2018-09-06T15:03:35.077Z,29.80
2018-09-06T15:06:03.502Z,29.90
2018-09-06T15:08:31.869Z,29.80
2018-09-06T15:11:00.278Z,29.80
2018-09-06T15:13:28.676Z,29.80
2018-09-06T15:15:57.124Z,29.90
2018-09-06T15:18:25.576Z,29.70
2018-09-06T15:20:53.982Z,29.60
2018-09-06T15:23:22.694Z,29.50
2018-09-06T15:25:51.654Z,29.10
2018-09-06T15:28:20.049Z,29.10
2018-09-06T15:30:48.486Z,28.80
2018-09-06T15:33:16.885Z,28.70
2018-09-06T15:35:45.271Z,28.80
2018-09-06T15:38:13.741Z,28.60
2018-09-06T15:40:42.458Z,28.30
2018-09-06T15:43:10.885Z,28.00
2018-09-06T15:45:39.369Z,27.90
2018-09-06T15:48:07.814Z,28.20
2018-09-06T15:50:36.339Z,28.30
2018-09-06T15:53:04.715Z,28.40
2018-09-06T15:55:33.144Z,28.30
2018-09-06T15:58:01.582Z,28.40
2018-09-06T16:00:29.976Z,28.40
2018-09-06T16:02:58.350Z,28.40
2018-09-06T16:05:26.691Z,28.30
2018-09-06T16:07:55.144Z,28.40
2018-09-06T16:10:23.659Z,28.20
2018-09-06T16:12:52.073Z,28.00
2018-09-06T16:15:20.450Z,27.40
2018-09-06T16:17:48.839Z,27.20
2018-09-06T16:20:17.347Z,26.90
2018-09-06T16:22:46.365Z,26.70
2018-09-06T16:25:15.009Z,26.60
2018-09-06T16:27:43.413Z,26.30
2018-09-06T16:30:11.913Z,26.20
2018-09-06T16:32:40.355Z,26.10
2018-09-06T16:35:08.783Z,26.00
2018-09-06T16:37:37.187Z,25.80
2018-09-06T16:40:05.648Z,25.70
2018-09-06T16:42:34.075Z,25.60
2018-09-06T16:45:03.432Z,25.50
2018-09-06T16:47:31.810Z,25.40
2018-09-06T16:50:00.232Z,25.40
2018-09-06T16:52:28.642Z,25.20
2018-09-06T16:54:56.983Z,25.20
2018-09-06T16:57:25.403Z,24.80
2018-09-06T16:59:53.851Z,25.20
2018-09-06T17:02:22.327Z,25.10
2018-09-06T17:04:50.812Z,25.00
2018-09-06T17:07:19.223Z,25.00
2018-09-06T17:09:47.702Z,24.90
2018-09-06T17:12:16.094Z,24.90
2018-09-06T17:14:44.530Z,24.70
2018-09-06T17:17:12.943Z,24.60
2018-09-06T17:19:41.309Z,24.60
2018-09-06T17:22:09.787Z,24.50
2018-09-06T17:24:38.158Z,24.30
2018-09-06T17:27:06.692Z,24.30
2018-09-06T17:29:35.261Z,24.20
2018-09-06T17:32:03.725Z,24.10
2018-09-06T17:34:32.127Z,24.10
2018-09-06T17:37:00.552Z,23.90
2018-09-06T17:39:28.948Z,23.80
2018-09-06T17:41:57.356Z,23.70
2018-09-06T17:44:25.770Z,23.60
2018-09-06T17:46:54.224Z,23.50
2018-09-06T17:49:22.591Z,23.40
2018-09-06T17:51:51.100Z,23.40
2018-09-06T17:54:19.634Z,23.20
2018-09-06T17:56:48.259Z,23.10
2018-09-06T17:59:16.695Z,23.10
2018-09-06T18:01:45.156Z,23.00
2018-09-06T18:04:13.564Z,23.00
2018-09-06T18:06:41.941Z,22.90
2018-09-06T18:09:12.100Z,22.90
2018-09-06T18:11:41.081Z,22.80
2018-09-06T18:14:09.816Z,22.70
2018-09-06T18:16:38.307Z,22.70
2018-09-06T18:19:06.678Z,22.70
2018-09-06T18:21:35.108Z,22.70
2018-09-06T18:24:03.601Z,22.50
2018-09-06T18:26:32.011Z,22.50
2018-09-06T18:29:00.517Z,22.40
2018-09-06T18:31:28.960Z,22.40
2018-09-06T18:33:57.343Z,22.40
2018-09-06T18:36:25.711Z,22.40
2018-09-06T18:38:54.132Z,22.30
2018-09-06T18:41:22.878Z,22.20
2018-09-06T18:43:51.294Z,22.20
2018-09-06T18:46:19.848Z,22.20
2018-09-06T18:48:48.289Z,22.20
2018-09-06T18:51:16.737Z,22.20
2018-09-06T18:53:45.177Z,22.10
2018-09-06T18:56:13.780Z,22.10
2018-09-06T18:58:42.271Z,22.00
2018-09-06T19:01:17.436Z,22.10
2018-09-06T19:03:45.849Z,22.00
2018-09-06T19:06:14.310Z,21.90
2018-09-06T19:08:43.559Z,21.90
2018-09-06T19:11:11.961Z,21.90
2018-09-06T19:13:40.408Z,21.80
2018-09-06T19:16:08.855Z,21.80
2018-09-06T19:18:37.487Z,21.70
2018-09-06T19:21:06.683Z,21.60
2018-09-06T19:23:35.096Z,21.60
2018-09-06T19:26:03.515Z,21.50
2018-09-06T19:28:38.744Z,21.50
2018-09-06T19:31:07.232Z,21.40
2018-09-06T19:33:35.707Z,21.40
2018-09-06T19:36:04.144Z,21.40
2018-09-06T19:38:32.597Z,21.40
2018-09-06T19:41:01.007Z,21.30
2018-09-06T19:43:29.499Z,21.30
2018-09-06T19:45:58.016Z,21.30
2018-09-06T19:48:26.712Z,21.30
2018-09-06T19:50:55.186Z,21.20
2018-09-06T19:53:23.616Z,21.20
2018-09-06T19:55:52.118Z,21.20
2018-09-06T19:58:20.597Z,21.10
2018-09-06T20:00:48.997Z,21.10
2018-09-06T20:03:17.413Z,21.10
2018-09-06T20:05:45.855Z,21.00
2018-09-06T20:08:14.340Z,21.00
2018-09-06T20:10:42.750Z,21.00
2018-09-06T20:13:11.247Z,21.00
2018-09-06T20:15:40.770Z,20.90
2018-09-06T20:18:09.172Z,20.90
2018-09-06T20:20:37.563Z,20.80
2018-09-06T20:23:06.172Z,20.80
2018-09-06T20:25:34.599Z,20.80
2018-09-06T20:28:03.123Z,20.80
2018-09-06T20:30:31.504Z,20.70
2018-09-06T20:33:00.050Z,20.60
2018-09-06T20:35:28.588Z,20.60
2018-09-06T20:37:57.096Z,20.60
2018-09-06T20:40:25.542Z,20.60
2018-09-06T20:42:54.015Z,20.60
2018-09-06T20:45:22.563Z,20.60
2018-09-06T20:47:50.951Z,20.60
2018-09-06T20:50:19.384Z,20.60
2018-09-06T20:52:47.827Z,20.60
2018-09-06T20:55:16.204Z,20.60
2018-09-06T20:57:44.656Z,20.60
2018-09-06T21:00:13.426Z,20.60
2018-09-06T21:02:41.833Z,20.50
2018-09-06T21:05:10.413Z,20.50
2018-09-06T21:07:38.887Z,20.60
2018-09-06T21:10:07.379Z,20.50
2018-09-06T21:12:35.804Z,20.50
2018-09-06T21:15:04.244Z,20.50
2018-09-06T21:17:32.730Z,20.50
2018-09-06T21:20:01.162Z,20.50
2018-09-06T21:22:29.719Z,20.40
2018-09-06T21:24:58.125Z,20.40
2018-09-06T21:27:26.628Z,20.40
2018-09-06T21:29:55.065Z,20.40
2018-09-06T21:32:23.502Z,20.30
2018-09-06T21:34:51.902Z,20.30
2018-09-06T21:37:20.301Z,20.30
2018-09-06T21:39:48.748Z,20.30
2018-09-06T21:42:17.152Z,20.30
2018-09-06T21:44:45.574Z,20.30
2018-09-06T21:47:14.072Z,20.30
2018-09-06T21:49:42.406Z,20.20
2018-09-06T21:52:10.851Z,20.20
2018-09-06T21:54:39.215Z,20.20
2018-09-06T21:57:07.650Z,20.20
2018-09-06T21:59:36.091Z,20.20
2018-09-06T22:02:04.478Z,20.20
2018-09-06T22:04:32.851Z,20.20
2018-09-06T22:07:01.239Z,20.20
2018-09-06T22:09:29.667Z,20.20
2018-09-06T22:11:58.300Z,20.20
2018-09-06T22:14:26.651Z,20.20
2018-09-06T22:16:55.051Z,20.20
2018-09-06T22:19:23.609Z,20.10
2018-09-06T22:21:51.997Z,20.10
2018-09-06T22:24:20.345Z,20.20
2018-09-06T22:26:48.778Z,20.20
2018-09-06T22:29:17.139Z,20.10
2018-09-06T22:31:45.526Z,20.10
2018-09-06T22:34:13.945Z,20.10
2018-09-06T22:36:42.342Z,20.00
2018-09-06T22:39:10.819Z,20.00
2018-09-06T22:41:39.204Z,20.00
2018-09-06T22:44:07.661Z,20.00
2018-09-06T22:46:36.050Z,20.00
2018-09-06T22:49:04.457Z,19.90
2018-09-06T22:51:32.911Z,19.90
2018-09-06T22:54:01.270Z,19.80
2018-09-06T22:56:29.692Z,19.80
2018-09-06T22:58:58.043Z,19.80
2018-09-06T23:01:26.423Z,19.70
2018-09-06T23:03:54.902Z,19.70
2018-09-06T23:06:23.519Z,19.70
2018-09-06T23:08:51.901Z,19.70
2018-09-06T23:11:20.281Z,19.70
2018-09-06T23:13:48.651Z,19.60
2018-09-06T23:16:17.032Z,19.60
2018-09-06T23:18:45.409Z,19.50
2018-09-06T23:21:13.919Z,19.50
2018-09-06T23:23:42.326Z,19.40
2018-09-06T23:26:11.419Z,19.50
2018-09-06T23:28:39.880Z,19.50
2018-09-06T23:31:08.438Z,19.50
2018-09-06T23:33:36.854Z,19.50
2018-09-06T23:36:05.270Z,19.50
2018-09-06T23:38:33.777Z,19.50
2018-09-06T23:41:02.158Z,19.40
2018-09-06T23:43:30.604Z,19.40
2018-09-06T23:45:59.636Z,19.40
2018-09-06T23:48:29.188Z,19.40
2018-09-06T23:50:58.034Z,19.40
2018-09-06T23:53:27.347Z,19.40
2018-09-06T23:55:56.027Z,19.30
2018-09-06T23:58:24.503Z,19.30
